createdAt,value
2023-05-14T00:00:19.130Z,100633.50
2023-05-14T00:02:45.563Z,100638.63
2023-05-14T00:05:12.024Z,100635.75
2023-05-14T00:07:38.385Z,100626.69
2023-05-14T00:10:05.051Z,100629.06
2023-05-14T00:12:32.099Z,100628.81
2023-05-14T00:14:58.492Z,100627.81
2023-05-14T00:17:24.866Z,100626.81
2023-05-14T00:19:51.558Z,100635.59
2023-05-14T00:22:17.967Z,100630.22
2023-05-14T00:24:44.313Z,100634.59
2023-05-14T00:27:10.766Z,100619.66
2023-05-14T00:29:37.084Z,100622.38
2023-05-14T00:32:03.819Z,100620.63
2023-05-14T00:34:30.349Z,100621.50
2023-05-14T00:36:56.625Z,100620.66
2023-05-14T00:39:22.949Z,100617.97
2023-05-14T00:41:49.555Z,100613.44
2023-05-14T00:44:15.844Z,100627.53
2023-05-14T00:46:43.566Z,100616.94
2023-05-14T00:49:10.581Z,100614.50
2023-05-14T00:51:37.177Z,100605.50
2023-05-14T00:54:03.729Z,100607.19
2023-05-14T00:56:30.185Z,100610.00
2023-05-14T00:58:56.463Z,100609.34
2023-05-14T01:01:23.154Z,100602.09
2023-05-14T01:03:49.938Z,100606.06
2023-05-14T01:06:31.204Z,100609.38
2023-05-14T01:09:25.198Z,100612.06
2023-05-14T01:12:13.288Z,100611.78
2023-05-14T01:15:05.753Z,100616.75
2023-05-14T01:17:35.834Z,100615.81
2023-05-14T01:20:02.389Z,100617.47
2023-05-14T01:22:28.720Z,100607.47
2023-05-14T01:24:55.039Z,100589.59
2023-05-14T01:27:36.557Z,100600.19
2023-05-14T01:30:27.536Z,100595.66
2023-05-14T01:32:57.785Z,100594.59
2023-05-14T01:35:27.765Z,100601.59
2023-05-14T01:38:06.481Z,100600.56
2023-05-14T01:40:33.864Z,100599.59
2023-05-14T01:43:00.833Z,100593.19
2023-05-14T01:45:27.193Z,100592.09
2023-05-14T01:47:56.022Z,100598.91
2023-05-14T01:50:22.757Z,100594.25
2023-05-14T01:52:49.573Z,100597.63
2023-05-14T01:55:15.935Z,100610.72
2023-05-14T01:57:42.296Z,100597.53
2023-05-14T02:00:09.256Z,100595.63
2023-05-14T02:02:35.659Z,100596.38
2023-05-14T02:05:02.166Z,100591.06
2023-05-14T02:07:28.580Z,100591.06
2023-05-14T02:09:54.912Z,100592.22
2023-05-14T02:12:21.235Z,100591.25
2023-05-14T02:14:47.602Z,100597.31
2023-05-14T02:17:16.478Z,100593.91
2023-05-14T02:19:43.016Z,100592.97
2023-05-14T02:22:09.380Z,100597.25
2023-05-14T02:24:35.896Z,100592.88
2023-05-14T02:27:02.286Z,100585.88
2023-05-14T02:29:28.689Z,100584.16
2023-05-14T02:31:55.947Z,100582.47
2023-05-14T02:34:23.166Z,100579.38
2023-05-14T02:36:49.558Z,100580.53
2023-05-14T02:39:15.964Z,100582.56
2023-05-14T02:41:42.339Z,100582.59
2023-05-14T02:44:08.634Z,100579.09
2023-05-14T02:46:35.060Z,100573.66
2023-05-14T02:49:02.838Z,100570.69
2023-05-14T02:51:29.192Z,100574.22
2023-05-14T02:53:55.611Z,100581.13
2023-05-14T02:56:22.482Z,100565.19
2023-05-14T02:58:48.836Z,100570.28
2023-05-14T03:01:15.271Z,100576.41
2023-05-14T03:03:42.025Z,100568.41
2023-05-14T03:06:08.764Z,100570.16
2023-05-14T03:08:35.109Z,100579.63
2023-05-14T03:11:01.482Z,100574.13
2023-05-14T03:13:27.845Z,100575.72
2023-05-14T03:15:57.027Z,100568.72
2023-05-14T03:18:23.351Z,100573.97
2023-05-14T03:20:49.727Z,100570.00
2023-05-14T03:23:16.204Z,100569.75
2023-05-14T03:25:42.515Z,100566.63
2023-05-14T03:28:09.646Z,100578.06
2023-05-14T03:30:36.398Z,100569.28
2023-05-14T03:33:02.847Z,100586.00
2023-05-14T03:35:29.306Z,100555.22
2023-05-14T03:37:58.178Z,100569.53
2023-05-14T03:40:25.476Z,100578.56
2023-05-14T03:42:52.067Z,100572.66
2023-05-14T03:45:18.381Z,100565.53
2023-05-14T03:47:44.781Z,100578.75
2023-05-14T03:50:11.172Z,100567.91
2023-05-14T03:52:37.494Z,100571.34
2023-05-14T03:55:04.079Z,100577.31
2023-05-14T03:57:30.406Z,100566.28
2023-05-14T03:59:56.815Z,100575.38
2023-05-14T04:02:23.220Z,100574.44
2023-05-14T04:04:49.702Z,100554.78
2023-05-14T04:07:16.148Z,100570.31
2023-05-14T04:09:42.469Z,100570.50
2023-05-14T04:12:09.094Z,100574.22
2023-05-14T04:14:35.463Z,100571.63
2023-05-14T04:17:01.816Z,100572.53
2023-05-14T04:19:28.145Z,100573.28
2023-05-14T04:21:54.470Z,100578.50
2023-05-14T04:24:20.794Z,100576.75
2023-05-14T04:26:47.112Z,100576.94
2023-05-14T04:29:13.436Z,100576.38
2023-05-14T04:31:39.838Z,100561.88
2023-05-14T04:34:06.170Z,100572.06
2023-05-14T04:36:32.634Z,100569.69
2023-05-14T04:38:59.036Z,100573.25
2023-05-14T04:41:25.370Z,100576.94
2023-05-14T04:43:55.312Z,100580.56
2023-05-14T04:46:22.228Z,100584.34
2023-05-14T04:48:48.952Z,100578.50
2023-05-14T04:51:15.343Z,100589.47
2023-05-14T04:53:41.707Z,100587.19
2023-05-14T04:56:08.024Z,100585.59
2023-05-14T04:58:35.253Z,100581.56
2023-05-14T05:01:04.826Z,100579.22
2023-05-14T05:03:31.295Z,100590.16
2023-05-14T05:05:57.920Z,100589.34
2023-05-14T05:08:24.253Z,100580.66
2023-05-14T05:10:50.573Z,100581.66
2023-05-14T05:13:17.016Z,100585.38
2023-05-14T05:15:43.667Z,100585.69
2023-05-14T05:18:10.055Z,100578.00
2023-05-14T05:20:36.331Z,100576.47
2023-05-14T05:23:02.699Z,100587.47
2023-05-14T05:25:29.040Z,100583.19
2023-05-14T05:27:55.379Z,100579.81
2023-05-14T05:30:21.848Z,100572.06
2023-05-14T05:32:48.453Z,100576.56
2023-05-14T05:35:14.800Z,100577.63
2023-05-14T05:37:41.433Z,100573.25
2023-05-14T05:40:09.095Z,100580.41
2023-05-14T05:42:35.472Z,100574.16
2023-05-14T05:45:02.027Z,100576.94
2023-05-14T05:47:28.398Z,100573.44
2023-05-14T05:49:54.798Z,100576.16
2023-05-14T05:52:21.084Z,100573.56
2023-05-14T05:54:47.435Z,100566.38
2023-05-14T05:57:13.798Z,100574.25
2023-05-14T05:59:40.240Z,100578.53
2023-05-14T06:02:06.718Z,100583.06
2023-05-14T06:04:33.081Z,100580.50
2023-05-14T06:06:59.487Z,100579.72
2023-05-14T06:09:25.832Z,100583.31
2023-05-14T06:11:52.206Z,100580.66
2023-05-14T06:14:18.564Z,100583.34
2023-05-14T06:16:45.004Z,100582.38
2023-05-14T06:19:11.604Z,100583.25
2023-05-14T06:21:38.195Z,100575.34
2023-05-14T06:24:04.883Z,100585.09
2023-05-14T06:26:31.243Z,100575.31
2023-05-14T06:28:57.632Z,100579.69
2023-05-14T06:31:23.977Z,100582.28
2023-05-14T06:33:50.294Z,100584.78
2023-05-14T06:36:16.628Z,100588.06
2023-05-14T06:38:43.001Z,100586.00
2023-05-14T06:41:09.288Z,100578.75
2023-05-14T06:43:35.599Z,100582.38
2023-05-14T06:46:01.944Z,100576.94
2023-05-14T06:48:29.460Z,100582.91
2023-05-14T06:50:56.152Z,100584.69
2023-05-14T06:53:22.558Z,100583.81
2023-05-14T06:55:48.973Z,100585.19
2023-05-14T06:58:15.392Z,100587.63
2023-05-14T07:00:41.828Z,100571.34
2023-05-14T07:03:08.320Z,100579.31
2023-05-14T07:05:34.802Z,100581.13
2023-05-14T07:08:01.222Z,100578.47
2023-05-14T07:10:27.620Z,100578.06
2023-05-14T07:12:53.958Z,100580.72
2023-05-14T07:15:21.086Z,100584.06
2023-05-14T07:17:47.462Z,100579.06
2023-05-14T07:20:13.836Z,100589.72
2023-05-14T07:22:40.197Z,100571.38
2023-05-14T07:25:07.201Z,100573.22
2023-05-14T07:27:33.530Z,100569.69
2023-05-14T07:29:59.860Z,100577.63
2023-05-14T07:32:26.263Z,100570.56
2023-05-14T07:34:52.652Z,100566.94
2023-05-14T07:37:19.056Z,100557.28
2023-05-14T07:39:45.520Z,100560.69
2023-05-14T07:42:19.364Z,100562.75
2023-05-14T07:44:51.903Z,100552.47
2023-05-14T07:47:18.293Z,100554.97
2023-05-14T07:49:44.735Z,100559.81
2023-05-14T07:52:11.085Z,100553.03
2023-05-14T07:54:38.265Z,100560.16
2023-05-14T07:57:05.113Z,100560.03
2023-05-14T07:59:32.021Z,100556.97
2023-05-14T08:01:58.391Z,100556.47
2023-05-14T08:04:24.922Z,100541.66
2023-05-14T08:06:51.569Z,100550.41
2023-05-14T08:09:17.861Z,100546.03
2023-05-14T08:11:44.261Z,100537.22
2023-05-14T08:14:10.698Z,100542.97
2023-05-14T08:16:37.053Z,100544.06
2023-05-14T08:19:03.451Z,100538.69
2023-05-14T08:21:29.857Z,100539.34
2023-05-14T08:23:56.185Z,100532.41
2023-05-14T08:26:22.787Z,100531.81
2023-05-14T08:28:49.088Z,100522.56
2023-05-14T08:31:15.576Z,100533.59
2023-05-14T08:33:41.924Z,100519.44
2023-05-14T08:36:08.459Z,100526.53
2023-05-14T08:38:34.877Z,100516.31
2023-05-14T08:41:01.295Z,100515.47
2023-05-14T08:43:37.723Z,100508.50
2023-05-14T08:46:06.137Z,100510.63
2023-05-14T08:48:35.045Z,100504.53
2023-05-14T08:51:01.974Z,100511.66
2023-05-14T08:53:28.410Z,100506.13
2023-05-14T08:55:54.812Z,100503.44
2023-05-14T08:58:21.264Z,100490.50
2023-05-14T09:00:47.726Z,100494.34
2023-05-14T09:03:14.921Z,100483.63
2023-05-14T09:05:41.522Z,100487.56
2023-05-14T09:08:07.948Z,100489.63
2023-05-14T09:10:34.228Z,100479.63
2023-05-14T09:13:00.767Z,100487.31
2023-05-14T09:15:29.043Z,100480.03
2023-05-14T09:17:56.673Z,100482.16
2023-05-14T09:20:24.842Z,100491.41
2023-05-14T09:22:54.776Z,100486.03
2023-05-14T09:25:27.409Z,100477.09
2023-05-14T09:27:56.110Z,100473.81
2023-05-14T09:30:25.340Z,100472.09
2023-05-14T09:32:54.708Z,100473.72
2023-05-14T09:35:24.970Z,100472.38
2023-05-14T09:37:53.126Z,100468.41
2023-05-14T09:40:21.444Z,100460.66
2023-05-14T09:42:49.187Z,100462.41
2023-05-14T09:45:16.679Z,100460.59
2023-05-14T09:47:43.234Z,100464.38
2023-05-14T09:50:09.858Z,100468.97
2023-05-14T09:52:37.173Z,100463.69
2023-05-14T09:55:04.034Z,100461.91
2023-05-14T09:57:30.894Z,100460.13
2023-05-14T09:59:57.198Z,100458.38
2023-05-14T10:02:29.955Z,100452.16
2023-05-14T10:05:00.751Z,100456.31
2023-05-14T10:07:31.711Z,100460.25
2023-05-14T10:10:02.311Z,100449.59
2023-05-14T10:12:34.446Z,100454.19
2023-05-14T10:15:06.784Z,100467.97
2023-05-14T10:17:34.751Z,100461.38
2023-05-14T10:20:03.042Z,100462.88
2023-05-14T10:22:33.157Z,100456.66
2023-05-14T10:24:59.971Z,100452.69
2023-05-14T10:27:26.717Z,100451.75
2023-05-14T10:29:54.585Z,100450.41
2023-05-14T10:32:24.231Z,100461.56
2023-05-14T10:34:50.561Z,100463.13
2023-05-14T10:37:18.815Z,100455.03
2023-05-14T10:39:50.208Z,100453.84
2023-05-14T10:42:23.164Z,100452.84
2023-05-14T10:45:01.754Z,100458.16
2023-05-14T10:47:28.945Z,100447.66
2023-05-14T10:49:57.831Z,100447.91
2023-05-14T10:52:25.570Z,100455.66
2023-05-14T10:55:02.907Z,100451.97
2023-05-14T10:57:31.592Z,100442.94
2023-05-14T11:00:00.988Z,100452.28
2023-05-14T11:02:30.263Z,100451.09
2023-05-14T11:05:05.813Z,100443.56
2023-05-14T11:07:40.245Z,100447.75
2023-05-14T11:10:11.875Z,100443.31
2023-05-14T11:12:40.903Z,100447.34
2023-05-14T11:15:09.871Z,100438.25
2023-05-14T11:17:37.557Z,100433.97
2023-05-14T11:20:08.082Z,100438.06
2023-05-14T11:22:36.094Z,100425.22
2023-05-14T11:25:03.078Z,100426.13
2023-05-14T11:27:30.660Z,100425.72
2023-05-14T11:29:57.947Z,100440.06
2023-05-14T11:32:24.296Z,100432.41
2023-05-14T11:34:51.181Z,100428.09
2023-05-14T11:37:17.697Z,100422.59
2023-05-14T11:39:55.007Z,100426.56
2023-05-14T11:42:22.320Z,100424.81
2023-05-14T11:44:51.550Z,100418.63
2023-05-14T11:47:20.233Z,100414.28
2023-05-14T11:49:47.342Z,100416.16
2023-05-14T11:52:14.813Z,100409.88
2023-05-14T11:54:44.373Z,100405.34
2023-05-14T11:57:16.313Z,100409.13
2023-05-14T11:59:42.799Z,100407.22
2023-05-14T12:02:12.324Z,100404.97
2023-05-14T12:04:39.424Z,100394.03
2023-05-14T12:07:14.577Z,100403.47
2023-05-14T12:09:48.826Z,100404.63
2023-05-14T12:12:18.172Z,100393.66
2023-05-14T12:14:45.379Z,100395.38
2023-05-14T12:17:22.608Z,100392.91
2023-05-14T12:19:52.711Z,100387.75
2023-05-14T12:22:21.673Z,100387.78
2023-05-14T12:24:59.334Z,100380.72
2023-05-14T12:27:27.632Z,100380.41
2023-05-14T12:30:19.940Z,100371.81
2023-05-14T12:32:51.357Z,100365.97
2023-05-14T12:35:18.109Z,100359.34
2023-05-14T12:37:44.429Z,100357.84
2023-05-14T12:40:11.327Z,100350.81
2023-05-14T12:42:37.761Z,100364.59
2023-05-14T12:45:07.749Z,100357.34
2023-05-14T12:47:34.514Z,100352.66
2023-05-14T12:50:01.212Z,100349.75
2023-05-14T12:52:37.748Z,100349.47
2023-05-14T12:55:07.167Z,100345.78
2023-05-14T12:57:35.069Z,100338.94
2023-05-14T13:00:01.715Z,100337.63
2023-05-14T13:02:28.057Z,100331.44
2023-05-14T13:04:54.422Z,100336.28
2023-05-14T13:07:20.999Z,100328.31
2023-05-14T13:09:47.316Z,100325.16
2023-05-14T13:14:39.843Z,100323.47
2023-05-14T13:17:07.996Z,100315.31
2023-05-14T13:19:34.431Z,100314.94
2023-05-14T13:22:00.735Z,100302.44
2023-05-14T13:24:27.091Z,100304.41
2023-05-14T13:26:53.453Z,100300.66
2023-05-14T13:29:19.851Z,100299.44
2023-05-14T13:31:46.223Z,100296.09
2023-05-14T13:34:13.081Z,100281.50
2023-05-14T13:36:39.778Z,100288.03
2023-05-14T13:39:06.832Z,100280.13
2023-05-14T13:41:37.608Z,100279.78
2023-05-14T13:44:04.281Z,100267.00
2023-05-14T13:46:30.744Z,100267.84
2023-05-14T13:48:57.107Z,100275.69
2023-05-14T13:51:23.629Z,100286.22
2023-05-14T13:53:50.149Z,100286.41
2023-05-14T13:56:16.451Z,100278.31
2023-05-14T13:58:42.824Z,100264.94
2023-05-14T14:01:09.208Z,100267.66
2023-05-14T14:03:35.563Z,100263.78
2023-05-14T14:06:01.860Z,100261.56
2023-05-14T14:08:28.146Z,100260.19
2023-05-14T14:10:55.276Z,100257.47
2023-05-14T14:13:22.692Z,100249.84
2023-05-14T14:15:49.854Z,100240.25
2023-05-14T14:18:16.216Z,100258.50
2023-05-14T14:20:42.541Z,100252.22
2023-05-14T14:23:08.908Z,100245.03
2023-05-14T14:25:35.274Z,100242.69
2023-05-14T14:28:01.577Z,100239.00
2023-05-14T14:30:28.048Z,100234.09
2023-05-14T14:32:54.643Z,100226.34
2023-05-14T14:35:21.174Z,100220.16
2023-05-14T14:37:53.272Z,100223.81
2023-05-14T14:40:19.703Z,100213.25
2023-05-14T14:42:46.077Z,100212.81
2023-05-14T14:45:12.648Z,100212.59
2023-05-14T14:47:44.432Z,100209.13
2023-05-14T14:50:11.130Z,100205.97
2023-05-14T14:52:37.501Z,100200.38
2023-05-14T14:55:04.140Z,100207.88
2023-05-14T14:57:30.762Z,100193.59
2023-05-14T14:59:57.122Z,100187.44
2023-05-14T15:02:23.574Z,100193.19
2023-05-14T15:04:50.820Z,100190.16
2023-05-14T15:07:18.518Z,100198.19
2023-05-14T15:09:45.010Z,100198.13
2023-05-14T15:12:12.363Z,100197.78
2023-05-14T15:14:38.660Z,100198.03
2023-05-14T15:17:05.133Z,100191.84
2023-05-14T15:19:32.205Z,100188.78
2023-05-14T15:21:58.668Z,100198.06
2023-05-14T15:24:26.051Z,100206.19
2023-05-14T15:26:53.552Z,100193.97
2023-05-14T15:29:20.249Z,100194.22
2023-05-14T15:31:46.857Z,100192.97
2023-05-14T15:34:13.416Z,100196.44
2023-05-14T15:36:39.837Z,100198.06
2023-05-14T15:39:06.263Z,100199.31
2023-05-14T15:41:34.270Z,100203.16
2023-05-14T15:44:00.719Z,100212.41
2023-05-14T15:46:27.270Z,100204.38
2023-05-14T15:48:53.772Z,100207.69
2023-05-14T15:51:20.172Z,100203.38
2023-05-14T15:53:46.788Z,100195.44
2023-05-14T15:56:14.081Z,100190.22
2023-05-14T15:58:40.504Z,100193.75
2023-05-14T16:01:07.029Z,100190.00
2023-05-14T16:03:34.032Z,100188.84
2023-05-14T16:06:00.625Z,100189.13
2023-05-14T16:08:26.915Z,100184.63
2023-05-14T16:10:53.278Z,100187.72
2023-05-14T16:13:19.653Z,100187.41
2023-05-14T16:15:46.622Z,100189.53
2023-05-14T16:18:12.961Z,100192.59
2023-05-14T16:20:39.324Z,100193.53
2023-05-14T16:23:05.724Z,100195.66
2023-05-14T16:25:32.085Z,100196.44
2023-05-14T16:27:58.540Z,100210.78
2023-05-14T16:30:25.182Z,100206.38
2023-05-14T16:32:51.722Z,100210.28
2023-05-14T16:35:18.106Z,100215.41
2023-05-14T16:37:44.474Z,100197.22
2023-05-14T16:40:11.722Z,100206.09
2023-05-14T16:42:38.481Z,100211.88
2023-05-14T16:45:05.405Z,100196.72
2023-05-14T16:47:31.779Z,100217.53
2023-05-14T16:49:58.406Z,100210.19
2023-05-14T16:52:24.856Z,100221.38
2023-05-14T16:54:51.210Z,100219.13
2023-05-14T16:57:17.762Z,100221.53
2023-05-14T16:59:46.537Z,100220.63
2023-05-14T17:02:12.895Z,100226.88
2023-05-14T17:04:41.874Z,100222.13
2023-05-14T17:07:08.391Z,100230.44
2023-05-14T17:09:34.725Z,100270.59
2023-05-14T17:12:01.183Z,100223.72
2023-05-14T17:14:27.511Z,100221.13
2023-05-14T17:16:56.264Z,100217.53
2023-05-14T17:19:22.663Z,100205.00
2023-05-14T17:21:48.982Z,100187.97
2023-05-14T17:24:15.336Z,100202.84
2023-05-14T17:26:41.904Z,100200.03
2023-05-14T17:29:08.199Z,100201.69
2023-05-14T17:31:34.590Z,100187.31
2023-05-14T17:34:01.025Z,100197.94
2023-05-14T17:36:28.454Z,100197.16
2023-05-14T17:38:54.884Z,100191.72
2023-05-14T17:41:21.496Z,100198.88
2023-05-14T17:43:47.874Z,100203.31
2023-05-14T17:46:14.302Z,100203.38
2023-05-14T17:48:40.787Z,100212.28
2023-05-14T17:51:07.117Z,100213.16
2023-05-14T17:53:33.397Z,100213.13
2023-05-14T17:55:59.787Z,100207.69
2023-05-14T17:58:26.122Z,100215.78
2023-05-14T18:00:52.883Z,100203.41
2023-05-14T18:03:20.304Z,100205.25
2023-05-14T18:05:47.219Z,100211.47
2023-05-14T18:08:14.485Z,100207.16
2023-05-14T18:10:40.814Z,100214.25
2023-05-14T18:13:07.143Z,100209.00
2023-05-14T18:15:33.530Z,100212.56
2023-05-14T18:17:59.881Z,100209.03
2023-05-14T18:20:26.290Z,100216.22
2023-05-14T18:22:52.675Z,100218.03
2023-05-14T18:25:19.059Z,100211.84
2023-05-14T18:27:45.686Z,100218.97
2023-05-14T18:30:16.822Z,100221.72
2023-05-14T18:32:44.552Z,100226.16
2023-05-14T18:35:11.821Z,100233.31
2023-05-14T18:37:38.252Z,100232.50
2023-05-14T18:40:06.812Z,100231.56
2023-05-14T18:42:34.210Z,100236.00
2023-05-14T18:45:01.359Z,100239.56
2023-05-14T18:47:27.829Z,100240.44
2023-05-14T18:49:55.768Z,100248.47
2023-05-14T18:52:26.063Z,100249.38
2023-05-14T18:54:53.610Z,100252.91
2023-05-14T18:57:20.576Z,100252.06
2023-05-14T18:59:47.039Z,100249.44
2023-05-14T19:02:13.445Z,100254.78
2023-05-14T19:04:51.221Z,100256.56
2023-05-14T19:07:19.318Z,100256.50
2023-05-14T19:09:45.708Z,100255.66
2023-05-14T19:12:12.524Z,100256.56
2023-05-14T19:14:38.888Z,100253.03
2023-05-14T19:17:05.729Z,100269.84
2023-05-14T19:19:32.537Z,100267.22
2023-05-14T19:21:58.859Z,100257.44
2023-05-14T19:24:25.208Z,100256.53
2023-05-14T19:26:51.586Z,100267.19
2023-05-14T19:29:17.891Z,100276.06
2023-05-14T19:31:44.257Z,100264.53
2023-05-14T19:34:10.735Z,100256.56
2023-05-14T19:36:37.086Z,100258.34
2023-05-14T19:39:03.826Z,100264.56
2023-05-14T19:41:30.225Z,100270.78
2023-05-14T19:43:56.546Z,100267.28
2023-05-14T19:46:22.909Z,100271.72
2023-05-14T19:48:49.286Z,100271.72
2023-05-14T19:51:15.639Z,100264.63
2023-05-14T19:53:41.955Z,100261.09
2023-05-14T19:56:08.271Z,100271.72
2023-05-14T19:58:34.633Z,100269.06
2023-05-14T20:01:01.016Z,100266.34
2023-05-14T20:03:27.466Z,100261.03
2023-05-14T20:05:55.176Z,100266.34
2023-05-14T20:08:21.552Z,100264.59
2023-05-14T20:10:48.363Z,100277.00
2023-05-14T20:13:14.960Z,100270.78
2023-05-14T20:15:42.535Z,100267.22
2023-05-14T20:18:09.244Z,100261.06
2023-05-14T20:20:35.832Z,100280.59
2023-05-14T20:23:02.172Z,100271.72
2023-05-14T20:25:28.872Z,100271.72
2023-05-14T20:27:55.340Z,100273.50
2023-05-14T20:30:21.679Z,100273.50
2023-05-14T20:32:48.068Z,100260.22
2023-05-14T20:35:14.589Z,100264.63
2023-05-14T20:37:41.307Z,100261.06
2023-05-14T20:40:10.629Z,100267.31
2023-05-14T20:42:37.014Z,100255.78
2023-05-14T20:45:03.768Z,100259.31
2023-05-14T20:47:31.810Z,100256.63
2023-05-14T20:49:58.280Z,100250.44
2023-05-14T20:52:24.734Z,100250.47
2023-05-14T20:54:51.086Z,100248.69
2023-05-14T20:57:18.987Z,100250.47
2023-05-14T20:59:45.954Z,100239.81
2023-05-14T21:02:12.593Z,100240.69
2023-05-14T21:04:39.197Z,100236.25
2023-05-14T21:07:06.738Z,100243.34
2023-05-14T21:09:33.188Z,100235.38
2023-05-14T21:11:59.650Z,100236.28
2023-05-14T21:14:25.950Z,100225.63
2023-05-14T21:16:52.278Z,100242.47
2023-05-14T21:19:18.623Z,100227.41
2023-05-14T21:21:45.545Z,100222.94
2023-05-14T21:24:11.852Z,100226.47
2023-05-14T21:26:40.245Z,100222.97
2023-05-14T21:29:06.805Z,100225.63
2023-05-14T21:31:33.130Z,100229.19
2023-05-14T21:33:59.512Z,100233.59
2023-05-14T21:36:25.908Z,100224.72
2023-05-14T21:38:53.106Z,100228.31
2023-05-14T21:41:19.534Z,100222.03
2023-05-14T21:43:45.880Z,100221.16
2023-05-14T21:46:12.252Z,100213.19
2023-05-14T21:48:38.739Z,100214.06
2023-05-14T21:51:05.370Z,100214.94
2023-05-14T21:53:31.706Z,100214.91
2023-05-14T21:55:58.060Z,100220.22
2023-05-14T21:58:24.424Z,100214.91
2023-05-14T22:00:50.830Z,100214.88
2023-05-14T22:03:17.281Z,100213.09
2023-05-14T22:05:43.801Z,100219.31
2023-05-14T22:08:10.854Z,100207.78
2023-05-14T22:10:37.203Z,100209.56
2023-05-14T22:13:03.602Z,100212.22
2023-05-14T22:15:29.923Z,100209.59
2023-05-14T22:17:56.858Z,100211.38
2023-05-14T22:20:25.378Z,100215.78
2023-05-14T22:22:51.825Z,100214.00
2023-05-14T22:25:18.159Z,100216.63
2023-05-14T22:27:44.551Z,100212.22
2023-05-14T22:30:11.233Z,100198.88
2023-05-14T22:32:37.593Z,100209.47
2023-05-14T22:35:04.329Z,100204.97
2023-05-14T22:37:30.653Z,100200.47
2023-05-14T22:39:57.043Z,100204.00
2023-05-14T22:42:23.425Z,100203.97
2023-05-14T22:44:49.727Z,100200.41
2023-05-14T22:47:16.327Z,100192.38
2023-05-14T22:49:43.536Z,100186.16
2023-05-14T22:52:10.131Z,100201.19
2023-05-14T22:54:36.507Z,100192.34
2023-05-14T22:57:03.581Z,100195.88
2023-05-14T22:59:29.895Z,100187.84
2023-05-14T23:01:56.299Z,100181.63
2023-05-14T23:04:22.771Z,100170.13
2023-05-14T23:06:49.277Z,100178.06
2023-05-14T23:09:15.681Z,100175.44
2023-05-14T23:11:42.060Z,100177.25
2023-05-14T23:14:08.890Z,100172.75
2023-05-14T23:16:35.491Z,100173.59
2023-05-14T23:19:01.895Z,100172.63
2023-05-14T23:21:28.392Z,100161.91
2023-05-14T23:23:54.681Z,100163.63
2023-05-14T23:26:21.689Z,100165.31
2023-05-14T23:28:48.009Z,100168.78
2023-05-14T23:31:14.336Z,100164.25
2023-05-14T23:33:41.084Z,100163.25
2023-05-14T23:36:07.980Z,100164.97
2023-05-14T23:38:34.416Z,100171.94
2023-05-14T23:41:00.761Z,100166.56
2023-05-14T23:43:27.113Z,100161.22
2023-05-14T23:45:53.930Z,100155.84
2023-05-14T23:48:20.491Z,100160.25
2023-05-14T23:50:46.811Z,100160.16
2023-05-14T23:53:13.209Z,100147.81
2023-05-14T23:55:39.795Z,100152.13
2023-05-14T23:58:06.235Z,100151.31
